Time;durP1;ratioP1;P1;durP2;ratioP2;P2;SDS_P1;SDS_P2;PMS_P1;PMS_P2;Temp;Humidity;BMP_temperature;BMP_pressure;BME280_temperature;BME280_humidity;BME280_pressure;Samples;Min_cycle;Max_cycle;Signal;HPM_P1;HPM_P2
2023/01/15 00:05:14;;;;;;;13.40;5.40;;;;;;;4.48;78.05;97921.40;434433;1266;97810;-38
2023/01/15 00:15:21;;;;;;;12.00;4.70;;;;;;;4.56;77.92;97904.05;434458;1256;110826;-39
2023/01/15 00:35:53;;;;;;;14.40;6.00;;;;;;;4.52;77.82;97873.51;434424;1257;97871;-40
2023/01/15 00:46:01;;;;;;;10.20;3.60;;;;;;;4.54;77.53;97858.64;434342;1255;110563;-39
2023/01/15 00:56:09;;;;;;;7.30;3.60;;;;;;;4.59;77.49;97843.41;434365;1257;107713;-40
2023/01/15 01:06:16;;;;;;;11.90;4.10;;;;;;;4.65;76.94;97811.51;434353;1257;97908;-39
2023/01/15 01:16:25;;;;;;;11.50;3.50;;;;;;;4.69;76.55;97784.16;434430;1266;111287;-42
2023/01/15 01:26:33;;;;;;;9.60;4.20;;;;;;;4.72;76.39;97771.74;434315;1266;108936;-39
2023/01/15 01:36:42;;;;;;;9.50;4.10;;;;;;;4.82;76.21;97760.75;434345;1254;97461;-41
2023/01/15 01:46:49;;;;;;;11.60;4.20;;;;;;;4.81;76.03;97750.77;434449;1257;110742;-40
2023/01/15 01:56:57;;;;;;;6.80;3.00;;;;;;;4.83;75.35;97742.85;434471;1254;108528;-40
2023/01/15 02:07:05;;;;;;;7.00;3.70;;;;;;;4.97;74.99;97730.64;434350;1258;97897;-40
2023/01/15 02:17:11;;;;;;;7.60;3.20;;;;;;;4.98;74.88;97711.34;434359;1257;110498;-39
2023/01/15 02:27:19;;;;;;;7.30;4.10;;;;;;;4.99;74.69;97693.44;434372;1256;107517;-40
2023/01/15 02:37:28;;;;;;;6.00;3.20;;;;;;;4.99;74.56;97692.29;434551;1254;108115;-39
2023/01/15 02:47:36;;;;;;;6.10;4.00;;;;;;;5.13;74.24;97689.04;435468;1254;97909;-41
2023/01/15 02:57:46;;;;;;;9.80;4.30;;;;;;;5.16;74.16;97663.96;435092;1258;353728;-40
2023/01/15 03:07:59;;;;;;;7.30;4.60;;;;;;;5.12;74.09;97653.33;435224;1258;96654;-39
2023/01/15 03:18:10;;;;;;;12.60;5.30;;;;;;;5.08;73.94;97647.51;435144;1266;97867;-40
2023/01/15 03:28:22;;;;;;;7.80;4.40;;;;;;;5.11;73.93;97639.63;435271;1258;110967;-40
2023/01/15 03:38:31;;;;;;;6.10;4.10;;;;;;;5.25;73.78;97632.43;435220;1254;107793;-40
2023/01/15 03:48:44;;;;;;;7.20;4.40;;;;;;;5.34;73.70;97622.60;435328;1256;97656;-41
2023/01/15 03:58:49;;;;;;;11.40;4.70;;;;;;;5.48;73.14;97612.67;435287;1254;110534;-40
2023/01/15 04:08:57;;;;;;;6.00;3.40;;;;;;;5.59;73.06;97602.98;435227;1257;98800;-40
2023/01/15 04:19:04;;;;;;;9.40;3.50;;;;;;;5.80;73.28;97594.31;435169;1256;97974;-40
2023/01/15 04:39:18;;;;;;;7.50;3.40;;;;;;;6.10;73.19;97594.69;435262;1254;107997;-41
2023/01/15 04:49:24;;;;;;;4.70;3.00;;;;;;;6.26;73.33;97579.02;435181;1254;99221;-40
2023/01/15 04:59:32;;;;;;;3.20;2.10;;;;;;;6.51;73.34;97561.70;435255;1256;110752;-39
2023/01/15 05:09:39;;;;;;;9.00;3.80;;;;;;;6.61;73.95;97534.07;435215;1256;107053;-39
2023/01/15 05:19:46;;;;;;;5.10;2.40;;;;;;;6.63;74.23;97537.23;435232;1257;98776;-40
2023/01/15 05:29:53;;;;;;;2.30;1.90;;;;;;;6.64;74.39;97522.09;435360;1253;109483;-40
2023/01/15 05:40:00;;;;;;;4.00;2.20;;;;;;;6.70;74.67;97493.05;435237;1256;98806;-41
2023/01/15 05:50:07;;;;;;;4.50;2.60;;;;;;;6.66;75.05;97498.02;435224;1254;112395;-41
2023/01/15 06:00:16;;;;;;;6.70;2.80;;;;;;;6.60;75.22;97501.92;435227;1258;107865;-40
2023/01/15 06:10:23;;;;;;;4.10;2.00;;;;;;;6.61;75.20;97505.20;435175;1260;99244;-41
2023/01/15 06:20:31;;;;;;;6.10;3.00;;;;;;;6.68;75.10;97506.20;435264;1256;108899;-40
2023/01/15 06:30:39;;;;;;;4.00;3.10;;;;;;;6.68;74.86;97509.30;435261;1257;97985;-41
2023/01/15 06:50:52;;;;;;;5.20;2.60;;;;;;;6.61;74.48;97512.56;435247;1257;108218;-42
2023/01/15 07:00:59;;;;;;;8.60;3.80;;;;;;;6.60;74.36;97518.14;435201;1254;98817;-41
2023/01/15 07:11:04;;;;;;;6.40;2.80;;;;;;;6.53;74.32;97519.73;435271;1256;111336;-41
2023/01/15 07:21:10;;;;;;;7.30;3.40;;;;;;;6.46;74.24;97506.00;435331;1252;108751;-39
2023/01/15 07:31:18;;;;;;;5.30;2.90;;;;;;;6.44;74.17;97516.58;435250;1257;99233;-41
2023/01/15 07:51:50;;;;;;;7.70;5.00;;;;;;;6.41;74.45;97512.82;435205;1256;99223;-40
2023/01/15 08:01:56;;;;;;;8.90;5.00;;;;;;;6.27;74.37;97500.27;435302;1258;111613;-39
2023/01/15 08:22:30;;;;;;;8.30;4.40;;;;;;;6.29;74.14;97494.06;435201;1253;99110;-42
2023/01/15 08:32:37;;;;;;;9.20;4.80;;;;;;;6.28;74.18;97489.59;435332;1256;110819;-41
2023/01/15 08:42:44;;;;;;;11.20;6.70;;;;;;;6.29;73.74;97475.20;435201;1256;108249;-40
2023/01/15 08:52:51;;;;;;;6.60;4.20;;;;;;;6.28;73.57;97473.05;435253;1252;98502;-40
2023/01/15 09:02:59;;;;;;;11.90;4.60;;;;;;;6.36;73.31;97476.42;435211;1256;108543;-41
2023/01/15 09:13:06;;;;;;;10.20;5.20;;;;;;;6.38;73.62;97485.61;435129;1256;99228;-39
2023/01/15 09:23:13;;;;;;;8.20;4.30;;;;;;;6.31;73.64;97476.30;435312;1254;111752;-40
2023/01/15 09:53:40;;;;;;;11.80;6.00;;;;;;;6.40;74.03;97449.79;435256;1256;107532;-41
2023/01/15 10:03:45;;;;;;;11.40;4.40;;;;;;;6.33;74.10;97441.12;435389;1256;98823;-39
2023/01/15 10:14:00;;;;;;;10.50;4.70;;;;;;;6.14;73.90;97420.89;435206;1253;110865;-40
2023/01/15 10:24:09;;;;;;;8.60;4.60;;;;;;;6.05;73.75;97404.33;435124;1252;107518;-40
2023/01/15 10:34:25;;;;;;;10.90;5.70;;;;;;;6.06;73.89;97396.27;435119;1253;99227;-41
2023/01/15 10:44:33;;;;;;;11.10;6.50;;;;;;;6.02;74.05;97383.36;435167;1256;108580;-41
2023/01/15 10:54:42;;;;;;;11.60;5.60;;;;;;;5.91;74.20;97371.69;435230;1253;97991;-40
2023/01/15 11:04:49;;;;;;;12.60;6.20;;;;;;;5.88;74.35;97362.35;435266;1256;111072;-40
2023/01/15 11:25:27;;;;;;;22.80;11.40;;;;;;;5.88;75.53;97328.00;435214;1253;99217;-40
2023/01/15 11:35:35;;;;;;;19.50;10.30;;;;;;;5.90;75.85;97312.48;435224;1256;108003;-41
2023/01/15 11:56:12;;;;;;;19.90;11.10;;;;;;;6.05;76.30;97321.25;435178;1256;112101;-41
2023/01/15 12:06:21;;;;;;;22.90;11.50;;;;;;;6.02;76.66;97308.11;435088;1256;107768;-41
2023/01/15 12:16:26;;;;;;;15.50;8.60;;;;;;;5.95;76.80;97299.90;435324;1252;98860;-40
2023/01/15 12:26:38;;;;;;;18.00;9.40;;;;;;;6.00;76.86;97299.16;435206;1253;107110;-40
2023/01/15 12:36:46;;;;;;;21.90;11.10;;;;;;;6.05;76.99;97297.67;435198;1256;99269;-41
2023/01/15 12:46:54;;;;;;;16.00;8.40;;;;;;;6.01;77.10;97274.10;435348;1253;110165;-40
2023/01/15 12:57:02;;;;;;;17.20;8.90;;;;;;;6.05;77.05;97274.17;435233;1256;106687;-41
2023/01/15 13:07:07;;;;;;;19.40;10.30;;;;;;;6.10;77.07;97272.98;435192;1253;97989;-39
2023/01/15 13:17:19;;;;;;;20.70;10.90;;;;;;;6.08;77.24;97275.23;435274;1256;109166;-40
2023/01/15 13:48:04;;;;;;;20.30;9.30;;;;;;;5.92;77.51;97299.52;435153;1253;106849;-40
2023/01/15 13:58:22;;;;;;;26.60;12.80;;;;;;;5.82;77.84;97306.00;435249;1253;98698;-40
2023/01/15 14:08:27;;;;;;;26.40;12.80;;;;;;;5.70;78.07;97297.93;435251;1256;107184;-40
2023/01/15 14:18:57;;;;;;;19.50;9.30;;;;;;;5.62;78.26;97294.08;435066;1256;99337;-40
2023/01/15 14:29:07;;;;;;;16.30;9.40;;;;;;;5.60;78.72;97292.02;435145;1256;111711;-40
2023/01/15 14:39:22;;;;;;;12.10;8.00;;;;;;;5.63;79.25;97286.14;435122;1253;106802;-39
2023/01/15 14:49:32;;;;;;;22.50;13.10;;;;;;;5.61;79.51;97288.77;435254;1256;98589;-41
2023/01/15 14:59:42;;;;;;;21.30;11.50;;;;;;;5.49;79.78;97290.73;434885;1256;459357;-41
2023/01/15 15:09:56;;;;;;;21.80;9.90;;;;;;;5.42;79.96;97289.73;435178;1256;98589;-40
2023/01/15 15:20:02;;;;;;;15.80;8.20;;;;;;;5.46;80.23;97305.31;435153;1256;111779;-41
2023/01/15 15:40:19;;;;;;;15.10;8.30;;;;;;;5.54;80.67;97370.66;435160;1252;99223;-40
2023/01/15 15:50:28;;;;;;;21.50;10.60;;;;;;;5.45;81.05;97365.46;434989;1256;107770;-41
2023/01/15 16:00:40;;;;;;;21.60;10.00;;;;;;;5.30;81.34;97382.64;435162;1256;98907;-40
2023/01/15 16:10:48;;;;;;;22.00;11.10;;;;;;;5.19;81.71;97403.85;435108;1256;112339;-40
2023/01/15 16:20:56;;;;;;;16.20;8.40;;;;;;;5.12;82.16;97427.94;435096;1253;107757;-38
2023/01/15 16:31:04;;;;;;;8.00;6.10;;;;;;;5.12;82.60;97460.27;435171;1256;97966;-41
2023/01/15 16:41:21;;;;;;;7.80;5.00;;;;;;;5.09;82.99;97494.05;435113;1253;108696;-40
2023/01/15 16:51:34;;;;;;;8.70;6.70;;;;;;;5.01;83.95;97519.89;435176;1254;98018;-40
2023/01/15 17:01:41;;;;;;;10.70;7.00;;;;;;;4.90;84.49;97526.48;435099;1256;111754;-42
2023/01/15 17:11:49;;;;;;;7.20;5.60;;;;;;;4.80;84.55;97545.35;435085;1256;109445;-40
2023/01/15 17:21:56;;;;;;;6.80;4.30;;;;;;;4.62;85.22;97563.52;435155;1253;99260;-41
2023/01/15 17:32:03;;;;;;;8.30;4.80;;;;;;;4.46;85.05;97577.00;435193;1256;107575;-40
2023/01/15 17:42:16;;;;;;;8.30;4.90;;;;;;;4.38;84.98;97582.96;435258;1256;99204;-40
2023/01/15 17:52:24;;;;;;;13.20;6.60;;;;;;;4.29;84.98;97592.64;435219;1256;110431;-39
2023/01/15 18:12:55;;;;;;;15.90;9.10;;;;;;;4.19;85.06;97622.02;435097;1253;99219;-39
2023/01/15 18:23:02;;;;;;;10.80;6.60;;;;;;;4.15;84.99;97622.73;435217;1256;108226;-40
2023/01/15 18:33:10;;;;;;;15.40;9.80;;;;;;;4.20;85.00;97625.05;435135;1256;98859;-39
2023/01/15 18:53:41;;;;;;;14.80;9.30;;;;;;;4.24;85.11;97631.34;435100;1256;109303;-39
2023/01/15 19:03:48;;;;;;;17.00;10.20;;;;;;;4.22;85.26;97644.93;435244;1254;99300;-39
2023/01/15 19:24:18;;;;;;;24.00;12.20;;;;;;;4.19;85.53;97648.62;435160;1256;99137;-39
2023/01/15 19:34:26;;;;;;;14.50;8.50;;;;;;;4.12;85.23;97636.36;435176;1255;113990;-39
2023/01/15 19:55:06;;;;;;;33.80;16.50;;;;;;;4.16;85.54;97651.26;435173;1256;97947;-40
2023/01/15 20:05:15;;;;;;;31.90;15.60;;;;;;;4.15;85.67;97650.02;435151;1257;108146;-40
2023/01/15 20:15:21;;;;;;;29.40;15.00;;;;;;;4.15;85.63;97652.11;435218;1254;97987;-40
2023/01/15 20:25:29;;;;;;;38.00;17.50;;;;;;;4.04;85.70;97651.95;435156;1256;112189;-40
2023/01/15 20:35:36;;;;;;;28.40;14.20;;;;;;;3.92;85.86;97647.41;435224;1253;105660;-40
2023/01/15 20:45:43;;;;;;;10.10;7.00;;;;;;;3.81;85.70;97638.02;435223;1264;98857;-44
2023/01/15 20:55:50;;;;;;;11.10;6.80;;;;;;;3.76;85.72;97642.02;435201;1256;107655;-40
2023/01/15 21:16:12;;;;;;;10.10;6.00;;;;;;;3.81;85.91;97647.52;435218;1255;110463;-40
2023/01/15 21:26:19;;;;;;;7.90;5.00;;;;;;;3.82;85.99;97644.02;435149;1266;108281;-40
2023/01/15 21:36:27;;;;;;;12.70;7.40;;;;;;;3.80;86.02;97646.87;435104;1257;99237;-39
2023/01/15 21:46:34;;;;;;;15.10;9.00;;;;;;;3.71;86.12;97648.48;435226;1265;107657;-41
2023/01/15 21:56:44;;;;;;;25.60;9.60;;;;;;;3.61;86.22;97645.38;435264;1254;97981;-40
2023/01/15 22:06:49;;;;;;;;;;;;;;;3.55;86.19;97639.84;435321;1255;111983;-40
2023/01/15 22:16:58;;;;;;;11.20;6.00;;;;;;;3.58;86.24;97644.87;435183;1252;108664;-39
2023/01/15 22:27:07;;;;;;;7.10;5.30;;;;;;;3.58;86.22;97637.02;435114;1257;98716;-42
2023/01/15 22:37:14;;;;;;;12.00;4.90;;;;;;;3.62;86.32;97629.15;435246;1257;106760;-40
2023/01/15 22:47:22;;;;;;;8.20;5.50;;;;;;;3.64;86.24;97628.34;435204;1256;99227;-40
2023/01/15 22:57:30;;;;;;;12.20;7.90;;;;;;;3.59;86.37;97637.63;435250;1257;111232;-40
2023/01/15 23:07:36;;;;;;;10.00;7.10;;;;;;;3.48;86.39;97643.29;435308;1256;107674;-40
2023/01/15 23:17:46;;;;;;;9.00;6.60;;;;;;;3.37;86.35;97632.09;435324;1257;98854;-40
2023/01/15 23:27:53;;;;;;;7.50;5.30;;;;;;;3.37;86.35;97616.94;435204;1256;109298;-40
2023/01/15 23:38:00;;;;;;;8.80;5.20;;;;;;;3.36;86.37;97617.42;435132;1256;99125;-40
2023/01/15 23:48:05;;;;;;;16.40;5.70;;;;;;;3.33;86.44;97611.52;435292;1262;111287;-38
2023/01/15 23:58:16;;;;;;;;;;;;;;;3.29;86.50;97613.30;435327;1252;108715;-39
